WetterOnline ( https://www.wetteronline.de )

Wetter aktuell Peißen

Aktuelles Wetter: Leipzig/Halle (136m)

6-stündlich | Neueste Meldungen
Ortszeit Temperatur Wetter
So, 29.11. 7:00 -0.8° C leicht bewölkt
So, 29.11. 1:00 2.2° C bedeckt
Sa, 28.11. 19:00 2.8° C bedeckt
Sa, 28.11. 13:00 2.7° C bedeckt
Sa, 28.11. 7:00 3.0° C Nebel (zunehmend)
Sa, 28.11. 1:00 2.5° C bedeckt
Fr, 27.11. 19:00 2.2° C fast wolkenlos
Fr, 27.11. 13:00 6.0° C fast wolkenlos
Ortszeit Temperatur Wetter
So, 29.11. 8:30 0.1° C bedeckt
So, 29.11. 8:20 0.1° C bedeckt
So, 29.11. 8:10 -0.0° C bedeckt
So, 29.11. 8:00 -0.3° C bewölkt
So, 29.11. 7:50 -0.3° C bedeckt
So, 29.11. 7:40 -0.4° C bedeckt
So, 29.11. 7:30 -0.8° C bewölkt
So, 29.11. 7:00 -0.8° C leicht bewölkt
So, 29.11. 6:30 -1.1° C wolkenlos
So, 29.11. 6:00 -0.3° C leicht bewölkt
So, 29.11. 5:30 0.9° C bewölkt
Ortszeit Relative Feuchte Sichtweite
So, 29.11. 7:00 96% 15 km
So, 29.11. 1:00 82% 45 km
Sa, 28.11. 19:00 73% 40 km
Sa, 28.11. 13:00 79% 22 km
Sa, 28.11. 7:00 100% 0.3 km
Sa, 28.11. 1:00 97% 6 km
Fr, 27.11. 19:00 93% 15 km
Fr, 27.11. 13:00 76% 19 km
Ortszeit Relative Feuchte Sichtweite
So, 29.11. 8:30 97% 8 km
So, 29.11. 8:20 97% -
So, 29.11. 8:10 95% -
So, 29.11. 8:00 96% 10 km
So, 29.11. 7:50 96% -
So, 29.11. 7:40 97% -
So, 29.11. 7:30 97% 7 km
So, 29.11. 7:00 96% 15 km
So, 29.11. 6:30 95% 11 km
So, 29.11. 6:00 94% 18 km
So, 29.11. 5:30 91% 17 km
Ortszeit Niederschlagsmenge Niederschlagsart
So, 29.11. 7:00 0.0 l/m2 in 12 Std. -
So, 29.11. 1:00 0.0 l/m2 in 6 Std. -
Sa, 28.11. 19:00 0.0 l/m2 in 12 Std. -
Sa, 28.11. 13:00 0.0 l/m2 in 6 Std. Nebel
Sa, 28.11. 7:00 0.0 l/m2 in 12 Std. -
Sa, 28.11. 1:00 0.0 l/m2 in 6 Std. -
Fr, 27.11. 19:00 0.0 l/m2 in 12 Std. -
Fr, 27.11. 13:00 0.0 l/m2 in 6 Std. -
Ortszeit Niederschlagsmenge Niederschlagsart
So, 29.11. 8:30 0.0 l/m2 in 1 Std. -
So, 29.11. 8:20 keine Meldung -
So, 29.11. 8:10 keine Meldung -
So, 29.11. 8:00 0.0 l/m2 in 1 Std. -
So, 29.11. 7:50 keine Meldung -
So, 29.11. 7:40 keine Meldung -
So, 29.11. 7:30 0.0 l/m2 in 1 Std. -
So, 29.11. 7:00 0.0 l/m2 in 1 Std. -
So, 29.11. 6:30 0.0 l/m2 in 1 Std. -
So, 29.11. 6:00 0.0 l/m2 in 1 Std. -
So, 29.11. 5:30 0.0 l/m2 in 1 Std. -
Ortszeit Stärke Spitze Richtung
km/h Bft. km/h Grad Sektor
So, 29.11. 7:00 6 1 11 350° N
So, 29.11. 1:00 7 2 19 340° N
Sa, 28.11. 19:00 11 2 25 70° O
Sa, 28.11. 13:00 11 2 29 70° O
Sa, 28.11. 7:00 13 3 20 70° O
Sa, 28.11. 1:00 6 1 17 60° NO
Fr, 27.11. 19:00 6 1 9 100° O
Fr, 27.11. 13:00 7 2 22 210° SW
Ortszeit Stärke Spitze Richtung
km/h Bft. km/h Grad Sektor
So, 29.11. 8:30 6 1 9 340° N
So, 29.11. 8:20 6 1 - 340° N
So, 29.11. 8:10 6 1 - 330° NW
So, 29.11. 8:00 7 2 11 340° N
So, 29.11. 7:50 7 2 - 340° N
So, 29.11. 7:40 7 2 - 340° N
So, 29.11. 7:30 7 2 9 350° N
So, 29.11. 7:00 6 1 9 350° N
So, 29.11. 6:30 7 2 11 20° N
So, 29.11. 6:00 7 2 11 330° NW
So, 29.11. 5:30 7 2 11 330° NW
Ortszeit Untergrenze Bedeckung Gattung
total tief tief mittel hoch
So, 29.11. 7:00 990 m 2/8 2/8 Sc - -
So, 29.11. 1:00 990 m 8/8 7/8 Sc - -
Sa, 28.11. 19:00 780 m 8/8 8/8 Sc - -
Sa, 28.11. 13:00 450 m 8/8 7/8 Sc - -
Sa, 28.11. 7:00 <30 m 8/8 8/8 St - -
Sa, 28.11. 1:00 180 m 8/8 8/8 St - -
Fr, 27.11. 19:00 1500 m 1/8 1/8 Sc - -
Fr, 27.11. 13:00 1350 m 1/8 1/8 Sc - -
Ortszeit Bedeckungsgrad in Achtel und Wolkenuntergrenze
So, 29.11. 8:30 8(1020m)
So, 29.11. 8:20 8(1020m)
So, 29.11. 8:10 8(1020m)
So, 29.11. 8:00 7(1080m)
So, 29.11. 7:50 8(1050m)
So, 29.11. 7:40 8(1080m)
So, 29.11. 7:30 7(1170m)
So, 29.11. 7:00 2(990m)
So, 29.11. 6:30 keine Wolken
So, 29.11. 6:00 2(990m)
So, 29.11. 5:30 7(960m)
Ortszeit Luftdruck NN (hPa) Tendenz (hPa in 3 Std.)
So, 29.11. 7:00 1027 + 0,2
So, 29.11. 1:00 1027 - 0,2
Sa, 28.11. 19:00 1026 + 0,9
Sa, 28.11. 13:00 1025 0,0
Sa, 28.11. 7:00 1023 + 0,6
Sa, 28.11. 1:00 1023 + 0,1
Fr, 27.11. 19:00 1023 + 0,9
Fr, 27.11. 13:00 1022 - 0,6
Ortszeit Luftdruck NN (hPa) Tendenz (hPa in 3 Std.)
So, 29.11. 8:30 1027 + 0,8
So, 29.11. 8:20 1027 keine Meldung
So, 29.11. 8:10 1027 keine Meldung
So, 29.11. 8:00 1027 + 0,6
So, 29.11. 7:50 1027 keine Meldung
So, 29.11. 7:40 1027 keine Meldung
So, 29.11. 7:30 1027 + 0,5
So, 29.11. 7:00 1027 + 0,2
So, 29.11. 6:30 1027 - 0,1
So, 29.11. 6:00 1026 - 0,2
So, 29.11. 5:30 1026 - 0,3
Ortszeit Schneehöhe (cm)
So, 29.11. 7:00 0
So, 29.11. 1:00 0
Sa, 28.11. 19:00 0
Sa, 28.11. 13:00 0
Sa, 28.11. 7:00 0
Sa, 28.11. 1:00 0
Fr, 27.11. 19:00 0
Fr, 27.11. 13:00 0
Ortszeit Schneehöhe (cm)
So, 29.11. 8:30 0
So, 29.11. 8:20 0
So, 29.11. 8:10 0
So, 29.11. 8:00 0
So, 29.11. 7:50 0
So, 29.11. 7:40 0
So, 29.11. 7:30 0
So, 29.11. 7:00 0
So, 29.11. 6:30 0
So, 29.11. 6:00 0
So, 29.11. 5:30 0
Link zu dieser Seite / Seite empfehlen

Das Wetter in ...